Lago, Idaho
Current Conditions -  °F | °C
As of 11:35 PM on Sunday 23 Nov 2014 (Local Time) from KAFO Reporting Station
Unknown Precip Unknown Precip  
Wind Chill: 21°   Ceiling: 500
Heat Index: 27°   Visibility: 2mi
Dew Point: 23°   Wind: 5mph
Humidity: 86%   Direction: 170°S
Pressure: 30.05"   Gusts: NA
Location:  42.5232°N, 111.761°W
Report Text: KAFO 240635Z AUTO 17004KT 2SM UP OVC005 M03/M05 A3005 RMK AO2
Loading
Personal Weather Stations






























Interactive Weather Map New forecast layout! Learn more

10-Day Weather Forecast

Advertisements
Track Severe Weather on mobile